HOURLY OBS INDEX

025

Murray Mallee and Upper Southeast

KEITH (MUNKORA)

Site: 025557
Alt: 27.0m
46km WNW of BORDERTOWN


  Time     Wind        Temp  DP   Baro     Rain since   Rain past  Vis(m), Cloud(base in m), Weather
  local        km/h                         9am  last   hr   10m    
Mon 19:30    S 17/ 26  26.4  4.8  1016.3    0.0   0.0   0.0   0.0   ----- 
Mon 19:30    S 17/ 26  26.4  4.8  1016.3    0.0   0.0  ----   0.0   ----- 
Mon 20:00    S 15/ 22  24.8  5.6  1016.6    0.0   0.0   0.0   0.0   ----- 
Mon 20:00    S 15/ 22  24.8  5.6  1016.6    0.0   0.0  ----   0.0   ----- 
Mon 20:30    S 17/ 22  22.9  6.6  1016.9    0.0   0.0   0.0   0.0   ----- 
Mon 20:30    S 17/ 22  22.9  6.6  1016.9    0.0   0.0  ----   0.0   ----- 
Mon 21:00    S 19/ 26  21.8  8.0  1017.3    0.0   0.0   0.0   0.0   ----- 
Mon 21:30    S 17/ 28  20.3  8.3  1017.7    0.0   0.0   0.0   0.0   ----- 
Mon 22:00    S 17/ 22  19.2  8.8  1017.8    0.0   0.0   0.0   0.0   ----- 
Mon 22:30    S 19/ 28  18.3  9.1  1017.9    0.0   0.0   0.0   0.0   ----- 
Mon 23:00    S 17/ 26  17.4  9.3  1017.8    0.0   0.0   0.0   0.0   ----- 
Mon 23:30    S 13/ 19  16.1  9.3  1017.7    0.0   0.0   0.0   0.0   ----- 
Tue 00:00    S 13/ 19  15.4  9.3  1017.4    0.0   0.0   0.0   0.0   ----- 
Tue 00:30    S 11/ 17  14.4  9.0  1017.3    0.0   0.0   0.0   0.0   ----- 
Tue 01:00    S  7/ 11  13.2  8.7  1017.2    0.0   0.0   0.0   0.0   ----- 

LAMEROO (AUSTIN PLAINS)

Site: 025562
Alt: 110.1m
106km NNW of BORDERTOWN


  Time     Wind        Temp  DP   Baro     Rain since   Rain past  Vis(m), Cloud(base in m), Weather
  local        km/h                         9am  last   hr   10m    
Mon 19:30    S 22/ 30  27.7 -2.2  1015.6    0.0   0.0   0.0   0.0   ----- 
Mon 19:30    S 22/ 30  27.7 -2.2  1015.6    0.0   0.0  ----   0.0   ----- 
Mon 20:00    S 20/ 26  26.6  1.8  1015.9    0.0   0.0   0.0   0.0   ----- 
Mon 20:00    S 20/ 26  26.6  1.8  1015.9    0.0   0.0  ----   0.0   ----- 
Mon 20:30    S 19/ 22  24.8  2.9  1016.1    0.0   0.0   0.0   0.0   ----- 
Mon 20:30    S 19/ 22  24.8  2.9  1016.1    0.0   0.0  ----   0.0   ----- 
Mon 21:00    S 17/ 20  23.5  2.9  1016.2    0.0   0.0   0.0   0.0   ----- 
Mon 21:30    S 19/ 22  22.8  3.4  1016.5    0.0   0.0   0.0   0.0   ----- 
Mon 22:00    S 22/ 26  22.4  4.9  1016.8    0.0   0.0   0.0   0.0   ----- 
Mon 22:30    S 26/ 32  21.7  6.8  1016.6    0.0   0.0   0.0   0.0   ----- 
Mon 23:00    S 24/ 30  20.4  7.7  1016.8    0.0   0.0   0.0   0.0   ----- 
Mon 23:30  SSE 26/ 32  19.5  8.8  1016.6    0.0   0.0   0.0   0.0   ----- 
Tue 00:00  SSE 22/ 30  18.6  8.8  1016.5    0.0   0.0   0.0   0.0   ----- 
Tue 00:30  SSE 24/ 30  18.1  8.9  1016.1    0.0   0.0   0.0   0.0   ----- 
Tue 01:00  SSE 22/ 28  17.5  8.6  1016.2    0.0   0.0   0.0   0.0   -----